Time;durP1;ratioP1;P1;durP2;ratioP2;P2;SDS_P1;SDS_P2;PMS_P1;PMS_P2;Temp;Humidity;BMP_temperature;BMP_pressure;BME280_temperature;BME280_humidity;BME280_pressure;Samples;Min_cycle;Max_cycle;Signal;HPM_P1;HPM_P2
2021/05/01 00:01:44;;;;;;;0.10;0.10;;;;;;;;;;5046872;28;20025;-78
2021/05/01 00:04:09;;;;;;;0.20;0.20;;;;;;;;;;5024839;28;20283;-77
2021/05/01 00:06:34;;;;;;;0.10;0.10;;;;;;;;;;5024128;28;20772;-77
2021/05/01 00:08:59;;;;;;;0.20;0.20;;;;;;;;;;5025439;28;20375;-77
2021/05/01 00:11:25;;;;;;;0.10;0.10;;;;;;;;;;5025080;28;20258;-77
2021/05/01 00:13:55;;;;;;;0.10;0.10;;;;;;;;;;5027043;28;20269;-77
2021/05/01 00:16:20;;;;;;;0.10;0.10;;;;;;;;;;5042413;28;20017;-76
2021/05/01 00:18:48;;;;;;;0.10;0.10;;;;;;;;;;5024595;28;20036;-77
2021/05/01 00:21:14;;;;;;;0.10;0.10;;;;;;;;;;5042575;28;20272;-76
2021/05/01 00:23:39;;;;;;;0.10;0.10;;;;;;;;;;5026442;28;20461;-76
2021/05/01 00:26:05;;;;;;;0.13;0.13;;;;;;;;;;5042176;28;20358;-77
2021/05/01 00:28:30;;;;;;;0.15;0.15;;;;;;;;;;5022956;28;20295;-76
2021/05/01 00:30:55;;;;;;;0.10;0.10;;;;;;;;;;5040154;28;20045;-77
2021/05/01 00:33:21;;;;;;;0.20;0.20;;;;;;;;;;5024802;28;20268;-76
2021/05/01 00:35:46;;;;;;;0.10;0.10;;;;;;;;;;5042871;28;20291;-76
2021/05/01 00:38:11;;;;;;;0.10;0.10;;;;;;;;;;5045661;28;20331;-77
2021/05/01 00:40:36;;;;;;;0.10;0.10;;;;;;;;;;5028046;28;20276;-77
2021/05/01 00:43:01;;;;;;;0.10;0.10;;;;;;;;;;5031887;28;20032;-76
2021/05/01 00:45:27;;;;;;;0.10;0.10;;;;;;;;;;5046326;28;20832;-78
2021/05/01 00:47:52;;;;;;;0.10;0.10;;;;;;;;;;5028008;28;20344;-77
2021/05/01 00:50:17;;;;;;;0.10;0.10;;;;;;;;;;5028301;28;20393;-77
2021/05/01 00:52:42;;;;;;;0.10;0.10;;;;;;;;;;5046368;28;20527;-77
2021/05/01 00:55:08;;;;;;;0.10;0.10;;;;;;;;;;5044919;28;20052;-77
2021/05/01 00:57:33;;;;;;;0.10;0.10;;;;;;;;;;5027963;28;20278;-77
2021/05/01 00:59:58;;;;;;;0.10;0.10;;;;;;;;;;5028583;28;20040;-77
2021/05/01 01:02:26;;;;;;;0.10;0.10;;;;;;;;;;5028494;28;20271;-78
2021/05/01 01:04:52;;;;;;;0.10;0.10;;;;;;;;;;5028999;28;20287;-77
2021/05/01 01:07:17;;;;;;;0.10;0.10;;;;;;;;;;5028324;28;20490;-76
2021/05/01 01:09:42;;;;;;;0.17;0.17;;;;;;;;;;5028867;28;20062;-76
2021/05/01 01:12:07;;;;;;;0.17;0.17;;;;;;;;;;5028754;28;20791;-77
2021/05/01 01:14:32;;;;;;;0.20;0.20;;;;;;;;;;5044368;28;20022;-77
2021/05/01 01:16:58;;;;;;;0.10;0.10;;;;;;;;;;5044246;28;20021;-77
2021/05/01 01:19:23;;;;;;;0.10;0.10;;;;;;;;;;5044875;28;20056;-78
2021/05/01 01:21:48;;;;;;;0.10;0.10;;;;;;;;;;5030831;28;20029;-78
2021/05/01 01:24:14;;;;;;;0.10;0.10;;;;;;;;;;5045941;28;20032;-78
2021/05/01 01:26:39;;;;;;;0.20;0.20;;;;;;;;;;5029793;28;20545;-78
2021/05/01 01:29:04;;;;;;;0.10;0.10;;;;;;;;;;5026541;28;20288;-78
2021/05/01 01:31:30;;;;;;;0.10;0.10;;;;;;;;;;5045588;28;20024;-77
2021/05/01 01:33:55;;;;;;;0.20;0.20;;;;;;;;;;5028520;28;20432;-76
2021/05/01 01:36:20;;;;;;;0.10;0.10;;;;;;;;;;5027610;28;20428;-77
2021/05/01 01:38:45;;;;;;;0.20;0.20;;;;;;;;;;5046205;28;20299;-77
2021/05/01 01:41:10;;;;;;;0.20;0.20;;;;;;;;;;5030505;28;21763;-77
2021/05/01 01:43:37;;;;;;;0.10;0.10;;;;;;;;;;5045457;28;20488;-78
2021/05/01 01:46:05;;;;;;;0.20;0.20;;;;;;;;;;5057866;28;20271;-78
2021/05/01 01:48:31;;;;;;;0.13;0.13;;;;;;;;;;5045638;28;20052;-78
2021/05/01 01:50:56;;;;;;;0.20;0.20;;;;;;;;;;5059254;28;20030;-78
2021/05/01 01:53:23;;;;;;;0.20;0.20;;;;;;;;;;5041610;28;20670;-78
2021/05/01 01:55:48;;;;;;;0.17;0.17;;;;;;;;;;5056102;28;20710;-77
2021/05/01 01:58:13;;;;;;;0.20;0.20;;;;;;;;;;5035808;28;20029;-77
2021/05/01 02:00:39;;;;;;;0.20;0.20;;;;;;;;;;5047013;28;20020;-78
2021/05/01 02:03:04;;;;;;;0.10;0.10;;;;;;;;;;5026135;28;20276;-78
2021/05/01 02:05:29;;;;;;;0.10;0.10;;;;;;;;;;5026425;28;20025;-78
2021/05/01 02:07:55;;;;;;;0.20;0.20;;;;;;;;;;5043727;28;20043;-79
2021/05/01 02:10:20;;;;;;;0.13;0.13;;;;;;;;;;5043835;28;20024;-78
2021/05/01 02:12:45;;;;;;;0.10;0.10;;;;;;;;;;5042437;28;20903;-77
2021/05/01 02:15:13;;;;;;;0.20;0.20;;;;;;;;;;5027146;28;20057;-78
2021/05/01 02:17:39;;;;;;;0.20;0.20;;;;;;;;;;5045763;28;20280;-78
2021/05/01 02:20:07;;;;;;;0.20;0.20;;;;;;;;;;5030413;28;20033;-79
2021/05/01 02:22:33;;;;;;;0.10;0.10;;;;;;;;;;5046913;28;20032;-78
2021/05/01 02:24:58;;;;;;;0.20;0.20;;;;;;;;;;5027409;28;20025;-78
2021/05/01 02:27:23;;;;;;;0.20;0.20;;;;;;;;;;5043017;28;20020;-76
2021/05/01 02:29:48;;;;;;;0.20;0.20;;;;;;;;;;5043404;28;20055;-76
2021/05/01 02:32:13;;;;;;;0.20;0.20;;;;;;;;;;5043519;28;20045;-77
2021/05/01 02:34:39;;;;;;;0.20;0.20;;;;;;;;;;5043152;28;20279;-77
2021/05/01 02:37:06;;;;;;;0.20;0.20;;;;;;;;;;5026179;28;20272;-77
2021/05/01 02:39:32;;;;;;;0.20;0.20;;;;;;;;;;5026624;28;20323;-78
2021/05/01 02:41:57;;;;;;;0.20;0.20;;;;;;;;;;5026581;28;20029;-77
2021/05/01 02:44:22;;;;;;;0.20;0.20;;;;;;;;;;5029976;28;20028;-77
2021/05/01 02:46:47;;;;;;;0.20;0.20;;;;;;;;;;5027076;28;20601;-78
2021/05/01 02:49:13;;;;;;;0.20;0.20;;;;;;;;;;5025576;28;20275;-76
2021/05/01 02:51:38;;;;;;;0.20;0.20;;;;;;;;;;5034086;28;20356;-78
2021/05/01 02:54:03;;;;;;;0.20;0.20;;;;;;;;;;5025502;28;20268;-77
2021/05/01 02:56:28;;;;;;;0.20;0.20;;;;;;;;;;5034426;28;20671;-78
2021/05/01 02:58:54;;;;;;;0.20;0.20;;;;;;;;;;5042294;28;20029;-78
2021/05/01 03:01:19;;;;;;;0.20;0.20;;;;;;;;;;5044724;28;20026;-78
2021/05/01 03:03:46;;;;;;;0.20;0.20;;;;;;;;;;5041863;28;20355;-78
2021/05/01 03:06:12;;;;;;;0.20;0.20;;;;;;;;;;5027396;28;20022;-77
2021/05/01 03:08:37;;;;;;;0.20;0.20;;;;;;;;;;5041271;28;20046;-78
2021/05/01 03:11:03;;;;;;;0.20;0.20;;;;;;;;;;5043995;28;20533;-76
2021/05/01 03:13:28;;;;;;;0.20;0.20;;;;;;;;;;5026385;28;20268;-77
2021/05/01 03:15:53;;;;;;;0.20;0.20;;;;;;;;;;5030568;28;20636;-77
2021/05/01 03:18:18;;;;;;;0.20;0.20;;;;;;;;;;5027099;28;20267;-77
2021/05/01 03:20:45;;;;;;;0.10;0.10;;;;;;;;;;5025829;28;20354;-77
2021/05/01 03:23:10;;;;;;;0.20;0.20;;;;;;;;;;5026696;28;20774;-77
2021/05/01 03:25:35;;;;;;;0.20;0.20;;;;;;;;;;5045130;28;20104;-78
2021/05/01 03:28:00;;;;;;;0.20;0.20;;;;;;;;;;5028980;28;20279;-78
2021/05/01 03:30:26;;;;;;;0.20;0.20;;;;;;;;;;5046019;28;20112;-78
2021/05/01 03:32:51;;;;;;;0.20;0.20;;;;;;;;;;5041981;28;20271;-77
2021/05/01 03:35:16;;;;;;;0.20;0.20;;;;;;;;;;5024833;28;20083;-77
2021/05/01 03:37:41;;;;;;;0.20;0.20;;;;;;;;;;5042409;28;20295;-77
2021/05/01 03:40:07;;;;;;;0.20;0.20;;;;;;;;;;5043249;28;20272;-77
2021/05/01 03:42:33;;;;;;;0.20;0.20;;;;;;;;;;5025888;28;20038;-76
2021/05/01 03:44:58;;;;;;;0.20;0.20;;;;;;;;;;5023032;28;20021;-77
2021/05/01 03:47:23;;;;;;;0.20;0.20;;;;;;;;;;5042793;28;20075;-76
2021/05/01 03:49:48;;;;;;;0.20;0.20;;;;;;;;;;5025379;28;20036;-78
2021/05/01 03:52:14;;;;;;;0.20;0.20;;;;;;;;;;5025281;28;20047;-77
2021/05/01 03:54:39;;;;;;;0.20;0.20;;;;;;;;;;5040603;28;20017;-76
2021/05/01 03:57:04;;;;;;;0.13;0.13;;;;;;;;;;5041807;28;20029;-78
2021/05/01 03:59:29;;;;;;;0.20;0.20;;;;;;;;;;5019106;28;20029;-78
2021/05/01 04:01:54;;;;;;;0.20;0.20;;;;;;;;;;5042623;28;20466;-78
2021/05/01 04:04:20;;;;;;;0.20;0.20;;;;;;;;;;5044689;28;20275;-77
2021/05/01 04:06:45;;;;;;;0.20;0.20;;;;;;;;;;5040933;28;20329;-77
2021/05/01 04:09:11;;;;;;;0.20;0.20;;;;;;;;;;5024808;28;20469;-78
2021/05/01 04:11:36;;;;;;;0.20;0.20;;;;;;;;;;5025870;28;20706;-78
2021/05/01 04:14:01;;;;;;;0.20;0.20;;;;;;;;;;5029875;28;20296;-77
2021/05/01 04:16:26;;;;;;;0.20;0.20;;;;;;;;;;5050406;28;20040;-78
2021/05/01 04:18:52;;;;;;;0.20;0.20;;;;;;;;;;5050836;28;20022;-78
2021/05/01 04:21:17;;;;;;;0.20;0.20;;;;;;;;;;5053218;28;20051;-78
2021/05/01 04:23:42;;;;;;;0.20;0.20;;;;;;;;;;5033431;28;20641;-78
2021/05/01 04:26:07;;;;;;;0.10;0.10;;;;;;;;;;5031485;28;20017;-78
2021/05/01 04:28:33;;;;;;;0.20;0.20;;;;;;;;;;5032321;28;20463;-78
2021/05/01 04:30:58;;;;;;;0.20;0.20;;;;;;;;;;5044597;28;20329;-78
2021/05/01 04:33:23;;;;;;;0.20;0.20;;;;;;;;;;5027961;28;20017;-78
2021/05/01 04:35:48;;;;;;;0.20;0.20;;;;;;;;;;5044638;28;20291;-78
2021/05/01 04:38:14;;;;;;;0.20;0.20;;;;;;;;;;5025803;28;20045;-77
2021/05/01 04:40:39;;;;;;;0.20;0.20;;;;;;;;;;5045483;28;20160;-78
2021/05/01 04:43:06;;;;;;;0.20;0.20;;;;;;;;;;5045976;28;20025;-78
2021/05/01 04:45:31;;;;;;;0.20;0.20;;;;;;;;;;5046875;28;20017;-79
2021/05/01 04:47:57;;;;;;;0.20;0.20;;;;;;;;;;5043035;28;20021;-79
2021/05/01 04:50:22;;;;;;;0.20;0.20;;;;;;;;;;5059859;28;20051;-78
2021/05/01 04:52:47;;;;;;;0.20;0.20;;;;;;;;;;5037223;28;20264;-78
2021/05/01 04:55:16;;;;;;;0.20;0.20;;;;;;;;;;5042718;28;20053;-79
2021/05/01 04:57:45;;;;;;;0.20;0.20;;;;;;;;;;5054284;28;20025;-78
2021/05/01 05:00:11;;;;;;;0.20;0.20;;;;;;;;;;5065353;28;20044;-79
2021/05/01 05:02:36;;;;;;;0.20;0.20;;;;;;;;;;5045958;28;20040;-78
2021/05/01 05:05:02;;;;;;;0.17;0.17;;;;;;;;;;5046765;28;20111;-78
2021/05/01 05:07:27;;;;;;;0.20;0.20;;;;;;;;;;5027107;28;20033;-79
2021/05/01 05:09:52;;;;;;;0.20;0.20;;;;;;;;;;5040227;28;20023;-78
2021/05/01 05:12:17;;;;;;;0.20;0.20;;;;;;;;;;5025944;28;20013;-78
2021/05/01 05:14:42;;;;;;;0.20;0.20;;;;;;;;;;5041239;28;20029;-78
2021/05/01 05:17:08;;;;;;;0.20;0.20;;;;;;;;;;5024510;28;20794;-77
2021/05/01 05:19:33;;;;;;;0.20;0.20;;;;;;;;;;5028158;28;20260;-77
2021/05/01 05:21:58;;;;;;;0.17;0.17;;;;;;;;;;5042494;28;20051;-77
2021/05/01 05:24:23;;;;;;;0.20;0.20;;;;;;;;;;5026588;28;20279;-78
2021/05/01 05:26:48;;;;;;;0.20;0.20;;;;;;;;;;5045802;28;20278;-78
2021/05/01 05:29:14;;;;;;;0.20;0.20;;;;;;;;;;5045259;28;20288;-77
2021/05/01 05:31:39;;;;;;;0.10;0.10;;;;;;;;;;5029491;28;20299;-77
2021/05/01 05:34:04;;;;;;;0.20;0.20;;;;;;;;;;5044104;28;20032;-77
2021/05/01 05:36:29;;;;;;;0.20;0.20;;;;;;;;;;5043970;28;20025;-77
2021/05/01 05:38:54;;;;;;;0.20;0.20;;;;;;;;;;5044654;28;20077;-77
2021/05/01 05:41:20;;;;;;;0.10;0.10;;;;;;;;;;5030887;28;20279;-77
2021/05/01 05:43:45;;;;;;;0.20;0.20;;;;;;;;;;5045628;28;20275;-76
2021/05/01 05:46:14;;;;;;;0.20;0.20;;;;;;;;;;5047776;28;20017;-76
2021/05/01 05:48:39;;;;;;;0.20;0.20;;;;;;;;;;5045702;28;20260;-76
2021/05/01 05:51:06;;;;;;;0.20;0.20;;;;;;;;;;5043747;28;20027;-76
2021/05/01 05:53:31;;;;;;;0.20;0.20;;;;;;;;;;5026357;28;20032;-77
2021/05/01 05:55:57;;;;;;;0.20;0.20;;;;;;;;;;5042954;28;20025;-76
2021/05/01 05:58:22;;;;;;;0.20;0.20;;;;;;;;;;5045192;28;20041;-76
2021/05/01 06:00:47;;;;;;;0.20;0.20;;;;;;;;;;5043796;28;20850;-77
2021/05/01 06:03:12;;;;;;;0.20;0.20;;;;;;;;;;5027018;28;20466;-76
2021/05/01 06:05:46;;;;;;;0.20;0.20;;;;;;;;;;5043318;28;20288;-76
2021/05/01 06:08:11;;;;;;;0.20;0.20;;;;;;;;;;5045742;28;20663;-76
2021/05/01 06:10:37;;;;;;;0.20;0.20;;;;;;;;;;5046248;28;20025;-77
2021/05/01 06:13:02;;;;;;;0.20;0.20;;;;;;;;;;5028469;28;20021;-76
2021/05/01 06:15:28;;;;;;;0.20;0.20;;;;;;;;;;5044790;28;20029;-76
2021/05/01 06:17:53;;;;;;;0.20;0.20;;;;;;;;;;5027094;28;20032;-77
2021/05/01 06:20:19;;;;;;;0.13;0.13;;;;;;;;;;5031056;28;20021;-77
2021/05/01 06:22:44;;;;;;;0.20;0.20;;;;;;;;;;5048083;28;20052;-78
2021/05/01 06:25:11;;;;;;;0.10;0.10;;;;;;;;;;5043338;28;20037;-77
2021/05/01 06:27:36;;;;;;;0.15;0.15;;;;;;;;;;5047451;28;20259;-75
2021/05/01 06:30:05;;;;;;;0.20;0.20;;;;;;;;;;5045795;28;20106;-76
2021/05/01 06:32:30;;;;;;;0.13;0.13;;;;;;;;;;5042559;28;20025;-77
2021/05/01 06:34:55;;;;;;;0.10;0.10;;;;;;;;;;5043994;28;20539;-76
2021/05/01 06:37:21;;;;;;;0.20;0.20;;;;;;;;;;5026391;28;20288;-77
2021/05/01 06:39:47;;;;;;;0.10;0.10;;;;;;;;;;5043588;28;20048;-77
2021/05/01 06:42:14;;;;;;;0.10;0.10;;;;;;;;;;5044523;28;20016;-76
2021/05/01 06:44:47;;;;;;;0.10;0.10;;;;;;;;;;5046128;28;20451;-79
2021/05/01 06:47:12;;;;;;;0.20;0.20;;;;;;;;;;5044040;28;20017;-78
2021/05/01 06:50:04;;;;;;;0.20;0.20;;;;;;;;;;5041866;28;20017;-78
2021/05/01 06:52:29;;;;;;;0.10;0.10;;;;;;;;;;5043515;28;20030;-78
2021/05/01 06:54:55;;;;;;;0.10;0.10;;;;;;;;;;5044255;28;20116;-76
2021/05/01 06:57:24;;;;;;;0.10;0.10;;;;;;;;;;5046476;28;20029;-76
2021/05/01 06:59:53;;;;;;;0.20;0.20;;;;;;;;;;5051927;28;20025;-76
2021/05/01 07:02:21;;;;;;;0.10;0.10;;;;;;;;;;5025787;28;20075;-75
2021/05/01 07:04:47;;;;;;;0.10;0.10;;;;;;;;;;5043514;28;20034;-76
2021/05/01 07:07:12;;;;;;;0.10;0.10;;;;;;;;;;5049261;28;20572;-75
2021/05/01 07:09:37;;;;;;;0.10;0.10;;;;;;;;;;5025643;28;20394;-75
2021/05/01 07:12:03;;;;;;;0.10;0.10;;;;;;;;;;5035222;28;20274;-74
2021/05/01 07:14:28;;;;;;;0.10;0.10;;;;;;;;;;5043568;28;20080;-74
2021/05/01 07:16:53;;;;;;;0.10;0.10;;;;;;;;;;5025115;28;20026;-74
2021/05/01 07:19:19;;;;;;;0.10;0.10;;;;;;;;;;5042435;28;20029;-75
2021/05/01 07:21:44;;;;;;;0.10;0.10;;;;;;;;;;5045024;28;20012;-76
2021/05/01 07:24:10;;;;;;;0.10;0.10;;;;;;;;;;5044647;28;20377;-75
2021/05/01 07:26:35;;;;;;;0.10;0.10;;;;;;;;;;5044774;28;20271;-75
2021/05/01 07:29:01;;;;;;;0.10;0.10;;;;;;;;;;5042872;28;20100;-76
2021/05/01 07:31:27;;;;;;;0.10;0.10;;;;;;;;;;5045787;28;20554;-75
2021/05/01 07:33:53;;;;;;;0.15;0.15;;;;;;;;;;5051186;28;20051;-75
2021/05/01 07:36:20;;;;;;;0.10;0.10;;;;;;;;;;5022641;28;20044;-75
2021/05/01 07:38:45;;;;;;;0.10;0.10;;;;;;;;;;5042305;28;20037;-75
2021/05/01 07:41:14;;;;;;;0.10;0.10;;;;;;;;;;5042613;28;20019;-72
2021/05/01 07:43:40;;;;;;;0.10;0.10;;;;;;;;;;5025634;28;20100;-73
2021/05/01 07:46:08;;;;;;;0.10;0.10;;;;;;;;;;5040198;28;20091;-72
2021/05/01 07:48:33;;;;;;;0.10;0.10;;;;;;;;;;5042001;28;20052;-73
2021/05/01 07:50:59;;;;;;;0.10;0.10;;;;;;;;;;5032842;28;20087;-73
2021/05/01 07:53:24;;;;;;;0.10;0.10;;;;;;;;;;5052336;28;20020;-73
2021/05/01 07:55:49;;;;;;;0.10;0.10;;;;;;;;;;5050436;28;20287;-73
2021/05/01 07:58:14;;;;;;;0.10;0.10;;;;;;;;;;5040460;28;20116;-71
2021/05/01 08:00:41;;;;;;;0.10;0.10;;;;;;;;;;5041681;28;20617;-71
2021/05/01 08:03:06;;;;;;;0.10;0.10;;;;;;;;;;5046148;28;20297;-71
2021/05/01 08:05:31;;;;;;;0.10;0.10;;;;;;;;;;5027027;28;20028;-72
2021/05/01 08:07:57;;;;;;;0.10;0.10;;;;;;;;;;5041871;28;20064;-71
2021/05/01 08:10:22;;;;;;;0.10;0.10;;;;;;;;;;5041329;28;20045;-72
2021/05/01 08:12:47;;;;;;;0.08;0.08;;;;;;;;;;5025225;28;20067;-72
2021/05/01 08:15:12;;;;;;;0.10;0.10;;;;;;;;;;5049215;28;20484;-73
2021/05/01 08:17:41;;;;;;;0.10;0.10;;;;;;;;;;5042334;28;20290;-73
2021/05/01 08:20:07;;;;;;;0.10;0.10;;;;;;;;;;5043178;28;20025;-73
2021/05/01 08:22:32;;;;;;;0.00;0.00;;;;;;;;;;5041389;28;20457;-74
2021/05/01 08:24:57;;;;;;;0.10;0.10;;;;;;;;;;5025143;28;20079;-75
2021/05/01 08:27:22;;;;;;;0.00;0.00;;;;;;;;;;5040971;28;20032;-75
2021/05/01 08:29:47;;;;;;;0.10;0.10;;;;;;;;;;5040075;28;20116;-74
2021/05/01 08:32:14;;;;;;;0.10;0.10;;;;;;;;;;5040499;28;20026;-75
2021/05/01 08:34:39;;;;;;;0.03;0.03;;;;;;;;;;5023215;28;20313;-75
2021/05/01 08:37:04;;;;;;;0.00;0.00;;;;;;;;;;5040923;28;20022;-75
2021/05/01 08:39:30;;;;;;;0.10;0.10;;;;;;;;;;5041451;28;20512;-75
2021/05/01 08:41:55;;;;;;;0.00;0.00;;;;;;;;;;5041565;28;20272;-75
2021/05/01 08:44:20;;;;;;;0.00;0.00;;;;;;;;;;5024425;28;20283;-75
2021/05/01 08:46:46;;;;;;;0.00;0.00;;;;;;;;;;5041437;28;20013;-76
2021/05/01 08:49:11;;;;;;;0.00;0.00;;;;;;;;;;5041740;28;20028;-76
2021/05/01 08:51:40;;;;;;;0.00;0.00;;;;;;;;;;5027191;28;20384;-77
2021/05/01 08:54:05;;;;;;;0.00;0.00;;;;;;;;;;5042689;28;20428;-75
2021/05/01 08:56:30;;;;;;;0.10;0.10;;;;;;;;;;5031194;28;20045;-76
2021/05/01 08:59:00;;;;;;;0.00;0.00;;;;;;;;;;5043597;28;20306;-76
2021/05/01 09:01:25;;;;;;;0.00;0.00;;;;;;;;;;5049444;28;20052;-76
2021/05/01 09:03:51;;;;;;;0.00;0.00;;;;;;;;;;5045103;28;20093;-76
2021/05/01 09:06:16;;;;;;;0.00;0.00;;;;;;;;;;5048692;28;20952;-78
2021/05/01 09:08:41;;;;;;;0.00;0.00;;;;;;;;;;5044866;28;20040;-77
2021/05/01 09:11:07;;;;;;;0.00;0.00;;;;;;;;;;5031882;28;20028;-77
2021/05/01 09:13:32;;;;;;;0.00;0.00;;;;;;;;;;5043606;28;20080;-78
2021/05/01 09:16:01;;;;;;;0.10;0.10;;;;;;;;;;5045084;28;20092;-78
2021/05/01 09:18:27;;;;;;;0.00;0.00;;;;;;;;;;5031042;28;20013;-77
2021/05/01 09:20:52;;;;;;;0.10;0.10;;;;;;;;;;5028398;28;20849;-77
2021/05/01 09:23:18;;;;;;;0.00;0.00;;;;;;;;;;5044254;28;20466;-77
2021/05/01 09:25:57;;;;;;;0.00;0.00;;;;;;;;;;5051067;28;20043;-78
2021/05/01 09:28:23;;;;;;;0.00;0.00;;;;;;;;;;5053157;28;20338;-78
2021/05/01 09:31:00;;;;;;;0.00;0.00;;;;;;;;;;5049038;28;20660;-78
2021/05/01 09:33:32;;;;;;;0.00;0.00;;;;;;;;;;5045545;28;20029;-78
2021/05/01 09:36:08;;;;;;;0.00;0.00;;;;;;;;;;5046446;28;20059;-78
2021/05/01 09:38:43;;;;;;;0.00;0.00;;;;;;;;;;5048685;28;20052;-78
2021/05/01 09:41:08;;;;;;;;;;;;;;;;;;5033151;28;20063;-78
2021/05/01 09:43:34;;;;;;;0.00;0.00;;;;;;;;;;5050624;28;19909;-79
2021/05/01 09:45:59;;;;;;;0.10;0.00;;;;;;;;;;5046838;28;20086;-79
2021/05/01 09:48:24;;;;;;;0.00;0.00;;;;;;;;;;5026666;28;20275;-79
2021/05/01 09:50:49;;;;;;;0.00;0.00;;;;;;;;;;5047011;28;20651;-79
2021/05/01 09:53:17;;;;;;;0.00;0.00;;;;;;;;;;5031444;28;20014;-79
2021/05/01 09:55:42;;;;;;;0.00;0.00;;;;;;;;;;5051337;28;20268;-80
2021/05/01 09:58:33;;;;;;;0.00;0.00;;;;;;;;;;5055750;28;20074;-80
2021/05/01 10:01:08;;;;;;;0.00;0.00;;;;;;;;;;5055198;28;20382;-80
2021/05/01 10:03:33;;;;;;;0.00;0.00;;;;;;;;;;5061013;28;20035;-80
2021/05/01 10:05:59;;;;;;;0.00;0.00;;;;;;;;;;5062800;28;20080;-77
2021/05/01 10:08:29;;;;;;;0.00;0.00;;;;;;;;;;5061146;28;20279;-76
2021/05/01 10:10:54;;;;;;;0.00;0.00;;;;;;;;;;5046624;28;20776;-78
2021/05/01 10:13:20;;;;;;;0.00;0.00;;;;;;;;;;5044206;28;20095;-78
2021/05/01 10:15:48;;;;;;;0.00;0.00;;;;;;;;;;5026428;28;20888;-78
2021/05/01 10:18:18;;;;;;;0.00;0.00;;;;;;;;;;5045746;28;20029;-77
2021/05/01 10:20:46;;;;;;;0.00;0.00;;;;;;;;;;5030249;28;20049;-78
2021/05/01 10:23:12;;;;;;;0.00;0.00;;;;;;;;;;5042489;28;20029;-78
2021/05/01 10:25:37;;;;;;;0.00;0.00;;;;;;;;;;5047269;28;20029;-78
2021/05/01 10:28:07;;;;;;;0.00;0.00;;;;;;;;;;5042464;28;20036;-78
2021/05/01 10:30:34;;;;;;;0.00;0.00;;;;;;;;;;5040188;28;20014;-79
2021/05/01 10:33:09;;;;;;;0.00;0.00;;;;;;;;;;5045480;28;20020;-78
2021/05/01 10:35:35;;;;;;;0.00;0.00;;;;;;;;;;5043878;28;20033;-77
2021/05/01 10:38:00;;;;;;;0.00;0.00;;;;;;;;;;5045884;28;20044;-77
2021/05/01 10:40:25;;;;;;;0.00;0.00;;;;;;;;;;5029509;28;20696;-77
2021/05/01 10:43:11;;;;;;;0.00;0.00;;;;;;;;;;5043949;28;20029;-78
2021/05/01 10:45:36;;;;;;;0.00;0.00;;;;;;;;;;5044126;28;20028;-78
2021/05/01 10:48:02;;;;;;;0.00;0.00;;;;;;;;;;5045475;28;20387;-77
2021/05/01 10:50:27;;;;;;;0.00;0.00;;;;;;;;;;5042119;28;20022;-78
2021/05/01 10:52:52;;;;;;;0.00;0.00;;;;;;;;;;5043264;28;20025;-78
2021/05/01 10:55:18;;;;;;;0.00;0.00;;;;;;;;;;5026365;28;20024;-79
2021/05/01 10:57:43;;;;;;;0.00;0.00;;;;;;;;;;5029010;28;20964;-78
2021/05/01 11:00:14;;;;;;;0.00;0.00;;;;;;;;;;5027313;28;20325;-77
2021/05/01 11:02:40;;;;;;;0.00;0.00;;;;;;;;;;5045954;28;20791;-76
2021/05/01 11:05:08;;;;;;;0.00;0.00;;;;;;;;;;5026288;28;20017;-76
2021/05/01 11:07:36;;;;;;;0.00;0.00;;;;;;;;;;5043409;28;20017;-76
2021/05/01 11:10:03;;;;;;;0.00;0.00;;;;;;;;;;5045535;28;20855;-77
2021/05/01 11:12:28;;;;;;;0.00;0.00;;;;;;;;;;5041851;28;20013;-78
2021/05/01 11:15:04;;;;;;;0.00;0.00;;;;;;;;;;5042049;28;20029;-78
2021/05/01 11:17:33;;;;;;;0.00;0.00;;;;;;;;;;5045542;28;20026;-80
2021/05/01 11:20:03;;;;;;;0.00;0.00;;;;;;;;;;5044738;28;20397;-77
2021/05/01 11:22:28;;;;;;;0.00;0.00;;;;;;;;;;5029708;28;20031;-77
2021/05/01 11:24:57;;;;;;;0.00;0.00;;;;;;;;;;5044317;28;21074;-77
2021/05/01 11:27:22;;;;;;;0.00;0.00;;;;;;;;;;5027289;28;20072;-78
2021/05/01 11:29:47;;;;;;;0.00;0.00;;;;;;;;;;5025619;28;20029;-75
2021/05/01 11:32:12;;;;;;;0.00;0.00;;;;;;;;;;5028643;28;20021;-76
2021/05/01 11:34:38;;;;;;;0.00;0.00;;;;;;;;;;5025323;28;20818;-78
2021/05/01 11:37:04;;;;;;;0.00;0.00;;;;;;;;;;5027449;28;20025;-76
2021/05/01 11:39:29;;;;;;;0.00;0.00;;;;;;;;;;5026552;28;20028;-77
2021/05/01 11:41:54;;;;;;;0.00;0.00;;;;;;;;;;5026072;28;20371;-78
2021/05/01 11:44:20;;;;;;;0.00;0.00;;;;;;;;;;5046585;28;20030;-78
2021/05/01 11:46:46;;;;;;;0.08;0.08;;;;;;;;;;5027562;28;20540;-79
2021/05/01 11:49:11;;;;;;;0.00;0.00;;;;;;;;;;5045261;28;20017;-77
2021/05/01 11:51:52;;;;;;;0.00;0.00;;;;;;;;;;5043110;28;20029;-77
2021/05/01 11:54:22;;;;;;;0.00;0.00;;;;;;;;;;5045726;28;20033;-76
2021/05/01 11:56:58;;;;;;;0.00;0.00;;;;;;;;;;5027141;28;20033;-78
2021/05/01 11:59:23;;;;;;;0.00;0.00;;;;;;;;;;5044762;28;20037;-78
2021/05/01 12:01:50;;;;;;;0.00;0.00;;;;;;;;;;5044998;28;20750;-76
2021/05/01 12:04:18;;;;;;;0.00;0.00;;;;;;;;;;5040502;28;20027;-77
2021/05/01 12:06:45;;;;;;;0.00;0.00;;;;;;;;;;5042319;28;20017;-76
2021/05/01 12:09:11;;;;;;;0.00;0.00;;;;;;;;;;5041648;28;20074;-77
2021/05/01 12:11:37;;;;;;;0.00;0.00;;;;;;;;;;5041043;28;20033;-77
2021/05/01 12:14:06;;;;;;;0.00;0.00;;;;;;;;;;5042947;28;20359;-76
2021/05/01 12:16:31;;;;;;;0.00;0.00;;;;;;;;;;5023622;28;20031;-77
2021/05/01 12:18:57;;;;;;;0.00;0.00;;;;;;;;;;5024751;28;20012;-76
2021/05/01 12:21:28;;;;;;;0.00;0.00;;;;;;;;;;5042237;28;20021;-77
2021/05/01 12:23:55;;;;;;;0.00;0.00;;;;;;;;;;5042959;28;20264;-77
2021/05/01 12:26:33;;;;;;;0.00;0.00;;;;;;;;;;5043466;28;20025;-78
2021/05/01 12:29:17;;;;;;;0.00;0.00;;;;;;;;;;5045210;28;20021;-77
2021/05/01 12:31:42;;;;;;;0.00;0.00;;;;;;;;;;5049976;28;20017;-77
2021/05/01 12:34:07;;;;;;;0.00;0.00;;;;;;;;;;5046625;28;20043;-77
2021/05/01 12:36:32;;;;;;;0.00;0.00;;;;;;;;;;5049207;28;20748;-76
2021/05/01 12:39:01;;;;;;;0.00;0.00;;;;;;;;;;5054035;28;20810;-77
2021/05/01 12:41:29;;;;;;;0.00;0.00;;;;;;;;;;5046840;28;20351;-77
2021/05/01 12:43:54;;;;;;;0.00;0.00;;;;;;;;;;5046464;28;20025;-78
2021/05/01 12:46:26;;;;;;;0.00;0.00;;;;;;;;;;5033055;28;20032;-78
2021/05/01 12:49:15;;;;;;;0.00;0.00;;;;;;;;;;5045966;28;20043;-78
2021/05/01 12:51:51;;;;;;;0.00;0.00;;;;;;;;;;5045336;28;20072;-79
2021/05/01 12:54:19;;;;;;;0.00;0.00;;;;;;;;;;5051733;28;20020;-79
2021/05/01 12:56:51;;;;;;;0.00;0.00;;;;;;;;;;5050196;28;20021;-78
2021/05/01 12:59:16;;;;;;;0.00;0.00;;;;;;;;;;5054383;28;20029;-78
2021/05/01 13:01:42;;;;;;;0.00;0.00;;;;;;;;;;5050481;28;20033;-78
2021/05/01 13:04:10;;;;;;;0.00;0.00;;;;;;;;;;5031998;28;20029;-78
2021/05/01 13:06:35;;;;;;;0.00;0.00;;;;;;;;;;5048005;28;20745;-78
2021/05/01 13:09:01;;;;;;;0.00;0.00;;;;;;;;;;5048807;28;20023;-78
2021/05/01 13:11:29;;;;;;;0.00;0.00;;;;;;;;;;5046177;28;20197;-78
2021/05/01 13:14:12;;;;;;;0.00;0.00;;;;;;;;;;5031433;28;20017;-78
2021/05/01 13:16:56;;;;;;;0.00;0.00;;;;;;;;;;5032235;28;20029;-79
2021/05/01 13:19:21;;;;;;;0.00;0.00;;;;;;;;;;5048035;28;20111;-77
2021/05/01 13:21:48;;;;;;;0.00;0.00;;;;;;;;;;5029194;28;20119;-78
2021/05/01 13:24:15;;;;;;;0.00;0.00;;;;;;;;;;5033383;28;20386;-78
2021/05/01 13:26:40;;;;;;;0.00;0.00;;;;;;;;;;5032759;28;20100;-78
2021/05/01 13:29:05;;;;;;;0.00;0.00;;;;;;;;;;5031161;28;20024;-79
2021/05/01 13:31:31;;;;;;;0.00;0.00;;;;;;;;;;5050385;28;20124;-78
2021/05/01 13:33:56;;;;;;;0.00;0.00;;;;;;;;;;5031284;28;20517;-78
2021/05/01 13:36:21;;;;;;;0.00;0.00;;;;;;;;;;5048051;28;20032;-77
2021/05/01 13:38:47;;;;;;;0.00;0.00;;;;;;;;;;5046373;28;20292;-77
2021/05/01 13:41:17;;;;;;;0.00;0.00;;;;;;;;;;5031861;28;20279;-78
2021/05/01 13:44:00;;;;;;;0.00;0.00;;;;;;;;;;5045351;28;20037;-78
2021/05/01 13:46:25;;;;;;;0.00;0.00;;;;;;;;;;5028818;28;20505;-77
2021/05/01 13:48:51;;;;;;;0.00;0.00;;;;;;;;;;5027010;28;20030;-77
2021/05/01 13:51:32;;;;;;;0.00;0.00;;;;;;;;;;5033954;28;20107;-78
2021/05/01 13:54:10;;;;;;;0.00;0.00;;;;;;;;;;5029398;28;20112;-77
2021/05/01 13:56:45;;;;;;;0.00;0.00;;;;;;;;;;5044522;28;20024;-78
2021/05/01 13:59:10;;;;;;;0.00;0.00;;;;;;;;;;5043999;28;20047;-78
2021/05/01 14:01:45;;;;;;;0.00;0.00;;;;;;;;;;5043147;28;20037;-77
2021/05/01 14:04:10;;;;;;;;;;;;;;;;;;5031450;28;20017;-77
2021/05/01 14:06:36;;;;;;;0.00;0.00;;;;;;;;;;5046797;28;20255;-77
2021/05/01 14:09:04;;;;;;;0.00;0.00;;;;;;;;;;5046386;28;20039;-77
2021/05/01 14:11:29;;;;;;;0.00;0.00;;;;;;;;;;5044707;28;20297;-77
2021/05/01 14:13:54;;;;;;;0.00;0.00;;;;;;;;;;5028943;28;20032;-78
2021/05/01 14:16:20;;;;;;;0.00;0.00;;;;;;;;;;5026883;28;20028;-78
2021/05/01 14:18:45;;;;;;;0.00;0.00;;;;;;;;;;5043567;28;20272;-77
2021/05/01 14:21:11;;;;;;;0.00;0.00;;;;;;;;;;5046108;28;20017;-77
2021/05/01 14:23:36;;;;;;;0.00;0.00;;;;;;;;;;5031704;28;20690;-77
2021/05/01 14:26:02;;;;;;;0.00;0.00;;;;;;;;;;5043999;28;21002;-77
2021/05/01 14:28:28;;;;;;;0.00;0.00;;;;;;;;;;5028429;28;20031;-77
2021/05/01 14:31:05;;;;;;;0.00;0.00;;;;;;;;;;5027327;28;20075;-77
2021/05/01 14:33:33;;;;;;;0.00;0.00;;;;;;;;;;5030227;28;20113;-77
2021/05/01 14:35:59;;;;;;;0.00;0.00;;;;;;;;;;5045381;28;20025;-77
2021/05/01 14:38:25;;;;;;;0.00;0.00;;;;;;;;;;5044666;28;20104;-77
2021/05/01 14:40:52;;;;;;;0.00;0.00;;;;;;;;;;5031720;28;20079;-77